Time;durP1;ratioP1;P1;durP2;ratioP2;P2;SDS_P1;SDS_P2;PMS_P1;PMS_P2;Temp;Humidity;BMP_temperature;BMP_pressure;BME280_temperature;BME280_humidity;BME280_pressure;Samples;Min_cycle;Max_cycle;Signal;HPM_P1;HPM_P2
2022/05/21 00:02:10;;;;;;;;;;;;;;;15.01;100.00;98902.75;1737656;80;21092;-60
2022/05/21 00:04:37;;;;;;;9.75;4.22;;;;;;;14.98;100.00;98909.44;1735451;80;20187;-61
2022/05/21 00:07:04;;;;;;;8.83;4.08;;;;;;;14.88;100.00;98913.27;1736397;80;21646;-61
2022/05/21 00:09:30;;;;;;;7.72;4.47;;;;;;;14.87;100.00;98908.94;1733043;80;21804;-61
2022/05/21 00:11:56;;;;;;;;;;;;;;;14.85;100.00;98901.02;1738149;80;21606;-60
2022/05/21 00:14:23;;;;;;;15.03;8.63;;;;;;;14.86;100.00;98902.65;1744700;80;20137;-60
2022/05/21 00:16:50;;;;;;;20.15;10.58;;;;;;;14.85;100.00;98896.11;1733246;80;21015;-61
2022/05/21 00:19:17;;;;;;;20.68;11.80;;;;;;;14.83;100.00;98886.86;1733220;80;21047;-61
2022/05/21 00:21:45;;;;;;;18.05;11.45;;;;;;;14.83;100.00;98892.89;1739532;80;21047;-60
2022/05/21 00:24:11;;;;;;;17.37;10.95;;;;;;;14.82;100.00;98893.45;1736435;80;21625;-60
2022/05/21 00:26:38;;;;;;;17.02;11.12;;;;;;;14.80;100.00;98892.16;1687941;84;21098;-60
2022/05/21 00:29:05;;;;;;;18.85;9.65;;;;;;;14.80;100.00;98890.80;1744513;80;21616;-61
2022/05/21 00:31:31;;;;;;;14.53;6.97;;;;;;;14.81;100.00;98886.91;1736954;80;21054;-60
2022/05/21 00:33:58;;;;;;;10.50;5.15;;;;;;;14.86;100.00;98885.40;1739139;80;21119;-61
2022/05/21 00:36:24;;;;;;;;;;;;;;;14.85;100.00;98884.59;1738417;80;21070;-60
2022/05/21 00:38:51;;;;;;;12.30;4.70;;;;;;;14.82;100.00;98883.86;1749771;80;20116;-61
2022/05/21 00:41:18;;;;;;;9.25;4.37;;;;;;;14.58;100.00;98867.62;1738815;80;21063;-60
2022/05/21 00:43:53;;;;;;;11.33;5.35;;;;;;;14.70;100.00;98893.25;1739374;80;21021;-60
2022/05/21 00:46:27;;;;;;;10.95;4.62;;;;;;;14.69;100.00;98903.17;1730242;80;21118;-60
2022/05/21 00:49:22;;;;;;;10.35;4.35;;;;;;;14.68;100.00;98901.55;1746944;80;20955;-60
2022/05/21 00:52:10;;;;;;;5.37;3.45;;;;;;;14.72;100.00;98901.98;1743870;80;21015;-60
2022/05/21 00:54:40;;;;;;;6.25;3.20;;;;;;;14.72;100.00;98901.98;1736587;82;20975;-60
2022/05/21 00:57:28;;;;;;;12.05;3.25;;;;;;;14.69;100.00;98903.17;1729328;82;21038;-60
2022/05/21 01:00:17;;;;;;;8.50;3.02;;;;;;;14.70;100.00;98904.80;1730671;82;21506;-60
2022/05/21 01:02:50;;;;;;;9.28;3.60;;;;;;;14.74;100.00;98903.82;1732995;82;21001;-60
2022/05/21 01:05:19;;;;;;;10.32;3.72;;;;;;;14.80;100.00;98899.83;1722812;82;21042;-60
2022/05/21 01:07:46;;;;;;;8.13;3.80;;;;;;;14.81;100.00;98902.78;1741640;82;21022;-60
2022/05/21 01:10:15;;;;;;;11.93;4.80;;;;;;;14.80;100.00;98909.97;1740531;82;21015;-60
2022/05/21 01:12:49;;;;;;;15.95;7.92;;;;;;;14.79;100.00;98913.83;1749947;82;21437;-61
2022/05/21 01:15:20;;;;;;;17.02;8.70;;;;;;;14.82;100.00;98904.97;1727784;82;21035;-61
2022/05/21 01:17:46;;;;;;;16.52;8.30;;;;;;;14.87;100.00;98902.90;1739095;82;20940;-61
2022/05/21 01:20:19;;;;;;;12.95;7.87;;;;;;;14.90;100.00;98898.70;1740086;81;21451;-60
2022/05/21 01:22:49;;;;;;;16.67;8.05;;;;;;;14.87;100.00;98897.42;1744647;82;20996;-61
2022/05/21 01:25:21;;;;;;;14.35;6.42;;;;;;;14.86;100.00;98903.20;1743334;81;21038;-60
2022/05/21 01:27:49;;;;;;;10.05;5.05;;;;;;;14.86;100.00;98904.58;1738745;82;21681;-60
2022/05/21 01:30:22;;;;;;;7.62;4.17;;;;;;;14.87;100.00;98900.16;1738611;82;21098;-60
2022/05/21 01:32:48;;;;;;;7.08;4.30;;;;;;;14.86;100.00;98901.28;1734947;82;21034;-60
2022/05/21 01:35:18;;;;;;;10.05;3.70;;;;;;;14.83;100.00;98901.92;1736978;82;21082;-60
2022/05/21 01:37:47;;;;;;;6.97;3.60;;;;;;;14.80;100.00;98892.98;1723033;82;20963;-60
2022/05/21 01:40:17;;;;;;;7.83;3.47;;;;;;;14.79;100.00;98900.12;1732277;82;21097;-60
2022/05/21 01:44:37;;;;;;;7.17;3.67;;;;;;;14.79;100.00;98896.02;1736782;82;20980;-60
2022/05/21 01:45:12;;;;;;;7.65;3.70;;;;;;;14.83;100.00;98901.92;1727663;82;21587;-60
2022/05/21 01:47:44;;;;;;;7.60;3.15;;;;;;;14.82;100.00;98889.90;1723911;82;21091;-60
2022/05/21 01:50:09;;;;;;;10.88;4.55;;;;;;;14.78;100.00;98887.55;1741277;82;21458;-60
2022/05/21 01:52:36;;;;;;;15.35;7.40;;;;;;;14.74;100.00;98887.94;1743208;82;21011;-61
2022/05/21 01:55:02;;;;;;;18.20;8.28;;;;;;;14.70;100.00;98880.92;1722324;82;20943;-60
2022/05/21 01:57:29;;;;;;;25.77;11.97;;;;;;;14.71;100.00;98893.50;1727126;82;20951;-61
2022/05/21 01:59:58;;;;;;;21.73;11.45;;;;;;;14.73;100.00;98887.72;1730723;82;20987;-60
2022/05/21 02:02:25;;;;;;;19.23;9.93;;;;;;;14.74;100.00;98889.31;1736038;82;21094;-61
2022/05/21 02:04:52;;;;;;;22.05;9.93;;;;;;;14.69;100.00;98882.63;1735588;82;21832;-61
2022/05/21 02:07:19;;;;;;;23.80;11.10;;;;;;;14.68;100.00;98886.48;1722661;82;21076;-61
2022/05/21 02:09:45;;;;;;;14.80;8.90;;;;;;;14.71;100.00;98889.95;1688882;83;21467;-61
2022/05/21 02:12:14;;;;;;;;;;;;;;;14.75;100.00;98889.00;1729515;82;21034;-60
2022/05/21 02:14:39;;;;;;;12.30;6.30;;;;;;;14.74;100.00;98883.27;1740950;82;20101;-60
2022/05/21 02:17:06;;;;;;;12.88;7.40;;;;;;;14.67;100.00;98878.02;1744626;82;21592;-60
2022/05/21 02:19:33;;;;;;;14.40;8.38;;;;;;;14.66;100.00;98877.80;1734282;82;20983;-60
2022/05/21 02:21:59;;;;;;;18.27;10.88;;;;;;;14.76;100.00;98881.59;1720467;81;21575;-61
2022/05/21 02:24:26;;;;;;;24.85;12.15;;;;;;;14.84;100.00;98875.34;1748193;81;20981;-61
2022/05/21 02:26:53;;;;;;;23.42;13.65;;;;;;;14.88;100.00;98876.28;1737570;81;21080;-60
2022/05/21 02:29:19;;;;;;;27.80;15.58;;;;;;;14.90;100.00;98879.52;1756563;81;21035;-60
2022/05/21 02:31:46;;;;;;;;;;;;;;;14.91;100.00;98882.52;1748284;81;21090;-60
2022/05/21 02:34:12;;;;;;;24.30;14.80;;;;;;;14.96;100.00;98883.72;1745691;81;20137;-60
2022/05/21 02:39:30;;;;;;;25.65;16.02;;;;;;;15.02;100.00;98882.42;1735484;81;20109;-61
2022/05/21 02:42:00;;;;;;;22.60;14.35;;;;;;;14.96;100.00;98882.34;1734894;81;21070;-60
2022/05/21 02:44:28;;;;;;;26.87;12.75;;;;;;;14.99;100.00;98886.37;1752548;81;21454;-60
2022/05/21 02:46:55;;;;;;;21.95;11.30;;;;;;;15.04;100.00;98881.55;1754559;81;21063;-60
2022/05/21 02:49:22;;;;;;;;;;;;;;;15.10;100.00;98878.89;1753129;81;21073;-60
2022/05/21 02:51:49;;;;;;;28.57;14.47;;;;;;;15.16;100.00;98880.33;1744788;81;20120;-60
2022/05/21 02:54:16;;;;;;;30.23;15.45;;;;;;;15.16;100.00;98880.92;1744191;81;20955;-60
2022/05/21 02:56:49;;;;;;;25.72;15.13;;;;;;;15.19;100.00;98879.72;1748493;81;21121;-60
2022/05/21 02:59:15;;;;;;;30.40;14.83;;;;;;;15.25;100.00;98878.98;1733297;81;21538;-60
2022/05/21 03:01:43;;;;;;;26.85;14.60;;;;;;;15.30;100.00;98868.64;1753017;81;21066;-60
2022/05/21 03:04:10;;;;;;;28.62;14.50;;;;;;;15.41;100.00;98864.44;1743285;81;20979;-60
2022/05/21 03:06:36;;;;;;;;;;;;;;;15.50;100.00;98864.47;1742063;81;21074;-60
2022/05/21 03:11:48;;;;;;;17.27;11.20;;;;;;;15.56;100.00;98854.94;1742234;81;21550;-60
2022/05/21 03:14:14;;;;;;;;;;;;;;;15.61;100.00;98852.03;1738421;81;21002;-60
2022/05/21 03:16:42;;;;;;;17.98;10.68;;;;;;;15.71;100.00;98851.69;1752479;81;20096;-60
2022/05/21 03:19:08;;;;;;;19.55;11.48;;;;;;;15.79;100.00;98845.94;1737098;81;20995;-60
2022/05/21 03:21:35;;;;;;;19.20;11.33;;;;;;;15.88;100.00;98843.40;1730185;81;21106;-60
2022/05/21 03:24:01;;;;;;;23.80;11.45;;;;;;;15.86;100.00;98833.89;1717554;82;21059;-61
2022/05/21 03:26:30;;;;;;;25.97;12.45;;;;;;;16.07;100.00;98849.07;1721617;82;21114;-60
2022/05/21 03:28:57;;;;;;;24.55;12.53;;;;;;;16.16;100.00;98849.27;1722575;82;21020;-60
2022/05/21 03:31:24;;;;;;;20.45;11.63;;;;;;;16.32;100.00;98846.22;1722134;82;21059;-61
2022/05/21 03:33:50;;;;;;;;;;;;;;;16.48;100.00;98846.44;1732712;82;21539;-62
2022/05/21 03:36:17;;;;;;;17.70;8.93;;;;;;;16.62;100.00;98842.91;1724016;82;20412;-61
2022/05/21 03:38:44;;;;;;;15.23;7.60;;;;;;;16.69;100.00;98838.26;1712665;82;21546;-61
2022/05/21 03:41:10;;;;;;;13.22;6.00;;;;;;;16.87;100.00;98834.26;1723624;82;21077;-61
2022/05/21 03:43:37;;;;;;;11.45;5.03;;;;;;;17.08;100.00;98826.81;1703111;82;21450;-61
2022/05/21 03:46:04;;;;;;;;;;;;;;;17.33;100.00;98824.41;1717364;82;21506;-61
2022/05/21 03:48:31;;;;;;;10.50;5.62;;;;;;;17.54;100.00;98829.86;1717020;81;20134;-61
2022/05/21 03:50:58;;;;;;;17.40;8.50;;;;;;;17.56;100.00;98826.79;1730559;82;21131;-60
2022/05/21 03:53:25;;;;;;;19.40;9.68;;;;;;;17.56;100.00;98808.91;1721697;82;21013;-61
2022/05/21 03:55:54;;;;;;;17.23;9.25;;;;;;;17.58;100.00;98799.75;1727188;82;21083;-61
2022/05/21 03:58:20;;;;;;;17.32;8.75;;;;;;;17.69;100.00;98800.93;1720392;82;21035;-61
2022/05/21 04:00:48;;;;;;;11.33;5.60;;;;;;;17.92;100.00;98813.72;1715950;82;21051;-61
2022/05/21 04:03:14;;;;;;;10.95;4.78;;;;;;;18.06;100.00;98806.73;1719437;82;20965;-61
2022/05/21 04:05:41;;;;;;;8.83;3.90;;;;;;;18.15;100.00;98803.28;1731637;82;21131;-61
2022/05/21 04:08:07;;;;;;;7.12;3.92;;;;;;;18.37;100.00;98796.52;1710727;82;21088;-61
2022/05/21 04:10:35;;;;;;;8.05;4.22;;;;;;;18.55;100.00;98805.37;1728535;82;21522;-61
2022/05/21 04:13:01;;;;;;;10.75;4.35;;;;;;;18.75;100.00;98803.03;1729150;82;20976;-61
2022/05/21 04:15:27;;;;;;;10.23;5.03;;;;;;;18.98;100.00;98797.81;1725192;82;21028;-61
2022/05/21 04:17:55;;;;;;;11.38;6.33;;;;;;;19.24;100.00;98807.24;1722775;82;21566;-61
2022/05/21 04:20:26;;;;;;;11.35;5.67;;;;;;;19.54;100.00;98804.97;1730019;82;21024;-61
2022/05/21 04:22:51;;;;;;;15.08;5.90;;;;;;;19.71;100.00;98801.06;1743054;82;21018;-61
2022/05/21 04:25:18;;;;;;;14.38;5.50;;;;;;;19.90;100.00;98792.90;1737538;81;21577;-61
2022/05/21 04:27:45;;;;;;;10.13;5.25;;;;;;;20.09;100.00;98794.92;1725168;82;21571;-61
2022/05/21 04:30:16;;;;;;;10.65;5.85;;;;;;;20.10;100.00;98793.78;1736398;82;21624;-61
2022/05/21 04:32:44;;;;;;;13.83;6.37;;;;;;;20.07;100.00;98783.45;1725553;82;21585;-62
2022/05/21 04:35:13;;;;;;;10.68;6.08;;;;;;;20.13;100.00;98793.06;1745465;82;21062;-61
2022/05/21 04:37:41;;;;;;;11.50;6.20;;;;;;;20.22;100.00;98797.27;1736819;82;21046;-61
2022/05/21 04:40:12;;;;;;;11.25;5.70;;;;;;;20.31;100.00;98779.94;1743307;82;21304;-61
2022/05/21 04:42:38;;;;;;;11.83;5.67;;;;;;;20.49;100.00;98778.97;1736386;82;21031;-61
2022/05/21 04:45:06;;;;;;;11.57;5.80;;;;;;;20.73;100.00;98780.09;1743292;82;21067;-61
2022/05/21 04:47:33;;;;;;;12.00;5.42;;;;;;;21.00;100.00;98771.98;1695866;84;21529;-61
2022/05/21 04:50:00;;;;;;;10.15;5.30;;;;;;;21.31;100.00;98763.55;1735667;82;21011;-62
2022/05/21 04:52:26;;;;;;;9.55;5.30;;;;;;;21.62;100.00;98762.54;1743078;82;21645;-61
2022/05/21 04:54:53;;;;;;;10.85;5.65;;;;;;;21.81;100.00;98760.53;1740800;82;20972;-61
2022/05/21 04:57:19;;;;;;;13.00;5.30;;;;;;;21.98;100.00;98756.48;1694392;84;21074;-61
2022/05/21 04:59:46;;;;;;;12.30;5.15;;;;;;;22.28;100.00;98755.97;1733094;82;21043;-62
2022/05/21 05:02:14;;;;;;;8.63;3.65;;;;;;;22.39;100.00;98754.75;1728528;82;21109;-60
2022/05/21 05:04:40;;;;;;;9.08;3.02;;;;;;;22.43;100.00;98767.28;1726436;82;21629;-60
2022/05/21 05:07:08;;;;;;;8.15;2.92;;;;;;;22.31;100.00;98736.42;1735902;82;21083;-59
2022/05/21 05:09:42;;;;;;;10.68;3.15;;;;;;;22.46;100.00;98748.53;1740474;82;21019;-64
2022/05/21 05:12:09;;;;;;;7.25;3.40;;;;;;;22.62;100.00;98754.11;1725963;82;21054;-60
2022/05/21 05:14:38;;;;;;;5.78;3.80;;;;;;;22.63;100.00;98742.44;1740817;82;20984;-60
2022/05/21 05:17:05;;;;;;;8.18;3.40;;;;;;;22.70;100.00;98747.53;1730654;81;21031;-61
2022/05/21 05:19:33;;;;;;;10.15;3.70;;;;;;;22.82;100.00;98750.63;1733271;82;21039;-61
2022/05/21 05:22:03;;;;;;;7.30;3.52;;;;;;;22.74;100.00;98748.34;1735323;81;21067;-60
2022/05/21 05:24:30;;;;;;;9.18;4.15;;;;;;;22.59;100.00;98748.52;1724218;82;20997;-60
2022/05/21 05:26:56;;;;;;;7.60;3.40;;;;;;;22.36;100.00;98749.15;1710751;82;21032;-61
2022/05/21 05:29:23;;;;;;;6.58;3.60;;;;;;;22.33;100.00;98748.73;1717880;82;21027;-60
2022/05/21 05:31:50;;;;;;;7.35;2.83;;;;;;;22.35;100.00;98735.90;1710638;82;21154;-60
2022/05/21 05:34:16;;;;;;;5.10;3.35;;;;;;;22.22;100.00;98745.58;1720355;82;21590;-61
2022/05/21 05:36:44;;;;;;;5.97;3.95;;;;;;;22.22;100.00;98745.58;1731539;82;21075;-60
2022/05/21 05:39:10;;;;;;;14.75;3.77;;;;;;;22.19;100.00;98742.97;1679528;84;21581;-61
2022/05/21 05:41:38;;;;;;;8.33;3.37;;;;;;;22.08;100.00;98740.62;1691353;84;21063;-60
2022/05/21 05:44:05;;;;;;;12.10;4.00;;;;;;;22.00;100.00;98738.12;1681625;84;21075;-60
2022/05/21 05:46:32;;;;;;;10.90;3.52;;;;;;;21.92;100.00;98733.04;1654755;84;21079;-60
2022/05/21 05:48:58;;;;;;;10.43;3.30;;;;;;;21.95;100.00;98732.30;1679309;84;21031;-61
2022/05/21 05:51:25;;;;;;;9.23;3.62;;;;;;;21.96;100.00;98733.91;1680832;84;21075;-60
2022/05/21 05:53:52;;;;;;;7.17;3.60;;;;;;;22.01;100.00;98722.48;1677867;84;21051;-60
2022/05/21 05:56:18;;;;;;;7.50;3.60;;;;;;;21.94;100.00;98725.15;1691214;84;21466;-60
2022/05/21 06:01:30;;;;;;;8.98;3.45;;;;;;;21.73;100.00;98714.48;1686485;84;21169;-61
2022/05/21 06:03:57;;;;;;;7.00;3.52;;;;;;;21.73;100.00;98718.64;1662776;84;21079;-62
2022/05/21 06:06:24;;;;;;;8.18;3.92;;;;;;;21.81;100.00;98716.22;1677525;84;21051;-61
2022/05/21 06:08:51;;;;;;;6.67;3.37;;;;;;;21.90;100.00;98716.52;1674144;84;21526;-62
2022/05/21 06:11:17;;;;;;;8.60;3.70;;;;;;;21.94;100.00;98710.48;1678565;84;21661;-60
2022/05/21 06:13:44;;;;;;;7.55;3.75;;;;;;;22.04;100.00;98704.31;1690902;84;21114;-61
2022/05/21 06:16:10;;;;;;;6.67;3.42;;;;;;;22.11;100.00;98707.19;1670609;84;21086;-60
2022/05/21 06:18:37;;;;;;;8.70;3.45;;;;;;;22.10;100.00;98701.45;1681087;84;21074;-59
2022/05/21 06:21:05;;;;;;;9.05;3.75;;;;;;;22.14;100.00;98704.47;1681926;84;21039;-59
2022/05/21 06:23:32;;;;;;;7.92;3.30;;;;;;;22.12;100.00;98706.03;1686515;83;21054;-59
2022/05/21 06:25:59;;;;;;;9.65;3.75;;;;;;;22.18;100.00;98710.07;1686616;84;21075;-59
2022/05/21 06:28:27;;;;;;;8.33;3.60;;;;;;;22.35;100.00;98710.95;1681899;84;21582;-59
2022/05/21 06:30:54;;;;;;;6.90;3.62;;;;;;;22.50;100.00;98714.11;1697692;84;21326;-59
2022/05/21 06:33:23;;;;;;;6.17;3.40;;;;;;;22.61;100.00;98708.70;1683965;84;21058;-59
2022/05/21 06:36:05;;;;;;;7.40;3.50;;;;;;;22.75;100.00;98700.02;1694149;84;21039;-60
2022/05/21 06:38:34;;;;;;;10.58;3.75;;;;;;;22.87;100.00;98707.89;1685843;84;21039;-59
2022/05/21 06:41:02;;;;;;;8.95;3.60;;;;;;;22.87;100.00;98707.89;1693506;84;21067;-59
2022/05/21 06:43:29;;;;;;;10.88;3.80;;;;;;;22.99;100.00;98696.55;1675269;84;21134;-59
2022/05/21 06:45:55;;;;;;;6.83;4.22;;;;;;;23.03;100.00;98684.88;1676793;84;21562;-59
2022/05/21 06:48:23;;;;;;;8.75;3.55;;;;;;;23.05;100.00;98686.70;1688137;84;21050;-59
2022/05/21 06:50:51;;;;;;;8.55;4.25;;;;;;;23.14;100.00;98683.83;1673162;84;21116;-59
2022/05/21 06:53:17;;;;;;;9.80;4.40;;;;;;;23.26;100.00;98680.80;1681673;84;21075;-58
2022/05/21 06:55:44;;;;;;;8.43;4.33;;;;;;;23.39;100.00;98678.53;1701208;84;21071;-58
2022/05/21 06:58:11;;;;;;;9.35;4.65;;;;;;;23.49;100.00;98675.70;1689604;84;21589;-58
2022/05/21 07:00:37;;;;;;;10.18;3.47;;;;;;;23.46;100.00;98667.52;1666540;84;21447;-58
2022/05/21 07:03:04;;;;;;;8.75;3.58;;;;;;;23.53;100.00;98668.17;1675226;84;21031;-59
2022/05/21 07:08:25;;;;;;;10.03;3.67;;;;;;;23.69;100.00;98663.97;1688446;84;21067;-59
2022/05/21 07:10:52;;;;;;;8.28;4.05;;;;;;;23.83;100.00;98674.40;1698211;84;21583;-59
2022/05/21 07:13:20;;;;;;;7.90;3.52;;;;;;;23.90;100.00;98657.78;1689519;84;21075;-59
2022/05/21 07:15:48;;;;;;;8.98;4.25;;;;;;;23.95;100.00;98658.02;1689683;84;21091;-59
2022/05/21 07:18:18;;;;;;;7.37;3.77;;;;;;;23.99;100.00;98650.47;1673282;84;21067;-59
2022/05/21 07:20:46;;;;;;;7.83;3.47;;;;;;;24.17;100.00;98653.61;1675128;84;21075;-60
2022/05/21 07:23:12;;;;;;;9.05;4.10;;;;;;;24.29;100.00;98644.16;1679486;84;21437;-59
2022/05/21 07:25:40;;;;;;;13.80;3.80;;;;;;;24.34;100.00;98645.78;1687524;84;21070;-61
2022/05/21 07:28:08;;;;;;;9.50;3.77;;;;;;;24.27;100.00;98638.97;1679141;84;21027;-60
2022/05/21 07:30:35;;;;;;;9.98;3.58;;;;;;;24.17;100.00;98631.38;1682970;84;21084;-60
2022/05/21 07:33:01;;;;;;;10.48;4.40;;;;;;;24.05;100.00;98631.69;1695728;84;21003;-60
2022/05/21 07:35:28;;;;;;;7.85;3.62;;;;;;;24.10;100.00;98622.16;1687399;84;21062;-60
2022/05/21 07:37:55;;;;;;;7.12;3.60;;;;;;;24.28;100.00;98610.58;1678260;84;21390;-60
2022/05/21 07:40:28;;;;;;;14.05;4.42;;;;;;;24.59;100.00;98612.70;1657199;84;21035;-60
2022/05/21 07:42:52;;;;;;;9.55;3.50;;;;;;;24.74;100.00;98604.61;1679993;84;21094;-59
2022/05/21 07:45:20;;;;;;;5.60;2.95;;;;;;;24.96;100.00;98595.76;1682327;84;21007;-60
2022/05/21 07:47:47;;;;;;;5.92;3.25;;;;;;;25.23;100.00;98603.15;1677050;84;21015;-60
2022/05/21 07:50:15;;;;;;;8.00;3.27;;;;;;;25.37;100.00;98594.80;1682763;84;20975;-61
2022/05/21 07:52:42;;;;;;;7.17;3.27;;;;;;;25.53;100.00;98585.50;1678943;84;21035;-60
2022/05/21 07:55:09;;;;;;;12.90;3.98;;;;;;;25.77;100.00;98593.63;1694250;84;20991;-60
2022/05/21 07:57:36;;;;;;;10.28;3.80;;;;;;;26.03;100.00;98586.83;1679333;84;21564;-60
2022/05/21 08:00:05;;;;;;;7.20;2.92;;;;;;;26.25;100.00;98594.56;1683134;84;21020;-61
2022/05/21 08:02:33;;;;;;;6.95;2.70;;;;;;;26.30;98.91;98594.94;1679127;84;21618;-61
2022/05/21 08:05:00;;;;;;;9.68;3.00;;;;;;;26.21;100.00;98592.59;1698021;84;21106;-61
2022/05/21 08:07:26;;;;;;;5.25;3.20;;;;;;;26.03;94.74;98593.80;1698245;84;21067;-61
2022/05/21 08:09:54;;;;;;;7.28;3.30;;;;;;;25.89;96.83;98596.61;1686408;84;21079;-61
2022/05/21 08:12:21;;;;;;;7.00;3.10;;;;;;;25.89;100.00;98591.03;1693341;84;21093;-61
2022/05/21 08:14:47;;;;;;;7.97;3.92;;;;;;;25.90;100.00;98598.98;1691755;84;21518;-62
2022/05/21 08:17:14;;;;;;;11.65;4.20;;;;;;;25.96;99.72;98586.84;1692628;84;21102;-62
2022/05/21 08:19:41;;;;;;;8.38;3.67;;;;;;;25.98;100.00;98576.87;1687569;84;21086;-63
2022/05/21 08:27:40;;;;;;;8.33;2.75;;;;;;;26.64;96.03;98567.30;1717001;82;21011;-63
2022/05/21 08:30:07;;;;;;;7.50;3.10;;;;;;;26.67;95.66;98567.88;1715723;82;21043;-62
2022/05/21 08:32:35;;;;;;;8.30;2.90;;;;;;;26.66;90.56;98578.84;1705614;84;21664;-61
2022/05/21 08:35:02;;;;;;;7.97;3.17;;;;;;;26.57;90.53;98575.71;1693990;85;20988;-62
2022/05/21 08:37:30;;;;;;;5.95;3.00;;;;;;;26.48;93.30;98567.77;1719815;82;21011;-61
2022/05/21 08:39:56;;;;;;;6.33;3.10;;;;;;;26.45;93.01;98566.39;1725539;82;21104;-62
2022/05/21 08:42:37;;;;;;;8.28;2.98;;;;;;;26.42;91.37;98556.04;1735977;82;21028;-62
2022/05/21 08:45:18;;;;;;;7.78;2.90;;;;;;;26.41;93.56;98555.23;1716962;82;21021;-61
2022/05/21 08:47:45;;;;;;;6.72;2.83;;;;;;;26.50;96.71;98545.05;1710958;82;21019;-62
2022/05/21 08:50:13;;;;;;;6.85;2.55;;;;;;;26.57;95.28;98546.41;1715611;82;21467;-62
2022/05/21 08:53:00;;;;;;;11.97;3.17;;;;;;;26.64;93.82;98547.77;1726888;82;21617;-62
2022/05/21 08:55:31;;;;;;;5.70;2.72;;;;;;;26.68;94.65;98545.72;1715157;82;21606;-62
2022/05/21 08:58:17;;;;;;;8.65;2.72;;;;;;;26.70;91.13;98547.52;1737717;82;21020;-62
2022/05/21 09:00:46;;;;;;;6.13;2.27;;;;;;;26.62;95.23;98546.77;1732827;82;21446;-61
2022/05/21 09:03:20;;;;;;;6.05;2.50;;;;;;;26.47;91.05;98548.62;1726825;82;21059;-61
2022/05/21 09:05:51;;;;;;;5.03;2.40;;;;;;;26.21;92.20;98559.12;1735879;82;21459;-62
2022/05/21 09:08:44;;;;;;;8.35;2.80;;;;;;;25.88;94.99;98576.30;1698426;82;21023;-60
2022/05/21 09:11:34;;;;;;;12.40;3.60;;;;;;;25.48;96.54;98588.64;1695743;84;21096;-60
2022/05/21 09:14:21;;;;;;;11.53;3.10;;;;;;;24.95;100.00;98608.08;1736859;82;21051;-61
2022/05/21 09:16:56;;;;;;;8.83;3.15;;;;;;;24.24;100.00;98632.00;1710831;82;21122;-62
2022/05/21 09:19:34;;;;;;;8.25;3.67;;;;;;;23.41;100.00;98637.89;1700726;84;21035;-60
2022/05/21 09:22:05;;;;;;;9.13;3.90;;;;;;;22.62;100.00;98661.78;1698836;84;21501;-59
2022/05/21 09:24:43;;;;;;;9.13;3.95;;;;;;;21.95;100.00;98663.61;1750774;82;21045;-60
2022/05/21 09:27:27;;;;;;;9.53;4.05;;;;;;;21.26;100.00;98663.61;1749536;82;21030;-60
2022/05/21 09:30:17;;;;;;;7.75;4.20;;;;;;;20.51;100.00;98658.36;1735043;82;21534;-61
2022/05/21 09:32:46;;;;;;;9.40;3.85;;;;;;;20.02;100.00;98653.87;1741392;82;21029;-61
2022/05/21 09:37:29;;;;;;;10.80;4.33;;;;;;;19.61;100.00;98638.72;1815788;78;22929;-60
2022/05/21 09:39:55;;;;;;;8.20;4.20;;;;;;;19.38;100.00;98638.50;1791549;80;21026;-61
2022/05/21 09:45:29;;;;;;;8.85;3.92;;;;;;;19.24;100.00;98657.45;1783147;80;20971;-60
2022/05/21 09:48:11;;;;;;;9.58;4.67;;;;;;;19.20;100.00;98653.22;1782614;79;20952;-60
2022/05/21 09:50:54;;;;;;;15.48;5.72;;;;;;;19.18;100.00;98641.75;1775727;79;21081;-59
2022/05/21 09:53:29;;;;;;;10.13;6.70;;;;;;;19.19;100.00;98645.31;1779139;80;20963;-60
2022/05/21 09:56:09;;;;;;;10.32;5.40;;;;;;;19.20;100.00;98640.80;1773967;80;21570;-60
2022/05/21 09:58:39;;;;;;;12.00;5.55;;;;;;;19.17;100.00;98640.72;1786807;80;20986;-60
2022/05/21 10:01:08;;;;;;;9.55;5.70;;;;;;;19.16;100.00;98639.13;1784227;79;21516;-60
2022/05/21 10:03:47;;;;;;;11.35;5.50;;;;;;;19.18;100.00;98629.91;1779949;79;21454;-59
2022/05/21 10:06:32;;;;;;;8.93;5.22;;;;;;;19.15;100.00;98625.11;1779889;79;21046;-59
2022/05/21 10:12:15;;;;;;;9.33;4.35;;;;;;;19.29;100.00;98622.14;1770914;80;21241;-59
2022/05/21 10:15:03;;;;;;;7.25;4.40;;;;;;;19.38;100.00;98602.05;1786558;80;21011;-60
2022/05/21 10:17:40;;;;;;;7.25;4.28;;;;;;;19.37;100.00;98601.85;1770904;80;21078;-62
2022/05/21 10:20:24;;;;;;;7.97;4.97;;;;;;;19.28;100.00;98586.61;1779301;80;21031;-61
2022/05/21 10:23:16;;;;;;;15.18;5.25;;;;;;;19.28;100.00;98591.55;1739670;80;20991;-61
2022/05/21 10:26:15;;;;;;;11.40;5.47;;;;;;;19.29;100.00;98574.42;1780759;79;21074;-61
2022/05/21 10:29:13;;;;;;;16.23;5.08;;;;;;;19.23;100.00;98564.25;1719386;81;21474;-61
2022/05/21 10:32:18;;;;;;;8.63;5.33;;;;;;;19.13;100.00;98563.38;1737530;80;21521;-60
2022/05/21 10:35:35;;;;;;;6.22;4.42;;;;;;;19.00;100.00;98570.73;1755024;80;20986;-60
2022/05/21 10:38:16;;;;;;;6.47;4.42;;;;;;;18.92;100.00;98581.38;1744318;80;20963;-58
2022/05/21 10:41:00;;;;;;;7.17;4.08;;;;;;;18.86;100.00;98583.57;1711356;81;21655;-60
2022/05/21 10:43:41;;;;;;;8.90;4.42;;;;;;;18.86;100.00;98576.11;1715277;82;21365;-60
2022/05/21 10:46:32;;;;;;;9.40;4.03;;;;;;;18.91;100.00;98558.50;1720930;83;21594;-60
2022/05/21 10:49:14;;;;;;;9.55;3.80;;;;;;;19.04;100.00;98552.31;1746044;80;20963;-60
2022/05/21 10:51:49;;;;;;;8.73;4.15;;;;;;;19.19;100.00;98541.29;1723930;82;21110;-60
2022/05/21 10:54:46;;;;;;;7.78;4.40;;;;;;;19.34;100.00;98539.68;1741189;82;20971;-60
2022/05/21 10:57:36;;;;;;;8.13;4.03;;;;;;;19.43;100.00;98543.64;1744565;81;21074;-60
2022/05/21 11:00:16;;;;;;;5.95;3.67;;;;;;;19.61;100.00;98539.34;1756475;82;20990;-60
2022/05/21 11:03:37;;;;;;;7.03;3.72;;;;;;;19.84;100.00;98520.91;1731095;81;21007;-60
2022/05/21 11:06:21;;;;;;;4.55;3.58;;;;;;;20.04;100.00;98519.78;1722984;82;21114;-60
2022/05/21 11:09:38;;;;;;;7.80;4.40;;;;;;;20.25;100.00;98530.45;1750689;81;21039;-60
2022/05/21 11:12:15;;;;;;;6.47;4.00;;;;;;;20.36;100.00;98521.83;1724632;82;21620;-60
2022/05/21 11:15:05;;;;;;;7.62;4.10;;;;;;;20.53;100.00;98512.27;1705940;84;20987;-59
2022/05/21 11:18:05;;;;;;;7.70;4.65;;;;;;;20.59;100.00;98502.50;1746817;81;20994;-60
2022/05/21 11:20:38;;;;;;;6.92;4.40;;;;;;;20.56;100.00;98490.22;1742081;82;21573;-60
2022/05/21 11:23:12;;;;;;;10.32;4.22;;;;;;;20.50;100.00;98479.26;1732235;82;20955;-59
2022/05/21 11:26:11;;;;;;;9.55;4.55;;;;;;;20.54;100.00;98476.55;1743819;80;21046;-59
2022/05/21 11:28:52;;;;;;;6.70;3.83;;;;;;;20.66;100.00;98463.91;1715884;83;21506;-60
2022/05/21 11:37:21;;;;;;;8.13;4.50;;;;;;;20.63;100.00;98450.83;1707063;83;21074;-59
2022/05/21 11:39:53;;;;;;;7.05;3.98;;;;;;;20.64;100.00;98442.77;1727237;83;20963;-60
2022/05/21 11:42:25;;;;;;;7.08;3.90;;;;;;;20.61;100.00;98440.16;1725972;83;21031;-60
2022/05/21 11:44:55;;;;;;;7.60;3.98;;;;;;;20.59;100.00;98435.56;1697887;82;21654;-60
2022/05/21 11:47:33;;;;;;;8.58;3.92;;;;;;;20.56;100.00;98429.40;1724414;82;21122;-60
2022/05/21 11:50:16;;;;;;;5.97;3.92;;;;;;;20.54;100.00;98421.27;1716042;83;21047;-59
2022/05/21 11:52:53;;;;;;;7.30;3.60;;;;;;;20.63;100.00;98421.22;1697503;83;21566;-60
2022/05/21 11:55:24;;;;;;;6.37;4.05;;;;;;;20.85;100.00;98412.70;1698030;83;21112;-61
2022/05/21 11:57:59;;;;;;;5.50;3.58;;;;;;;21.06;100.00;98406.10;1700392;83;21030;-60
2022/05/21 12:00:32;;;;;;;7.08;3.80;;;;;;;21.21;100.00;98396.88;1770931;80;21070;-60
2022/05/21 12:03:10;;;;;;;8.43;4.08;;;;;;;21.39;100.00;98385.25;1755174;81;21015;-62
2022/05/21 12:05:46;;;;;;;7.42;3.72;;;;;;;21.66;100.00;98395.88;1748003;80;21016;-60
2022/05/21 12:08:27;;;;;;;8.63;4.10;;;;;;;21.95;100.00;98381.80;1762204;80;21018;-60
2022/05/21 12:11:10;;;;;;;6.65;3.98;;;;;;;22.15;100.00;98367.95;1775344;81;21086;-59
2022/05/21 12:13:52;;;;;;;7.78;3.80;;;;;;;22.23;100.00;98370.21;1724178;80;21420;-60
2022/05/21 12:16:24;;;;;;;8.53;3.50;;;;;;;22.30;100.00;98371.08;1756090;80;21036;-60